createdAt,value
2023-01-12T00:01:46.044Z,1.53
2023-01-12T00:04:14.345Z,1.20
2023-01-12T00:06:42.389Z,1.60
2023-01-12T00:09:10.748Z,1.27
2023-01-12T00:11:38.959Z,1.27
2023-01-12T00:14:07.252Z,1.30
2023-01-12T00:16:37.813Z,1.10
2023-01-12T00:19:10.782Z,1.40
2023-01-12T00:21:56.361Z,1.20
2023-01-12T00:24:25.605Z,1.10
2023-01-12T00:26:53.743Z,1.20
2023-01-12T00:29:21.647Z,1.27
2023-01-12T00:31:50.931Z,1.20
2023-01-12T00:34:18.815Z,1.00
2023-01-12T00:36:47.039Z,1.40
2023-01-12T00:39:15.147Z,1.20
2023-01-12T00:42:00.713Z,1.20
2023-01-12T00:44:46.277Z,1.10
2023-01-12T00:47:15.579Z,1.33
2023-01-12T00:49:43.570Z,1.27
2023-01-12T00:52:18.244Z,1.17
2023-01-12T00:54:53.095Z,1.30
2023-01-12T00:57:20.946Z,1.10
2023-01-12T00:59:48.874Z,1.23
2023-01-12T01:02:18.186Z,1.57
2023-01-12T01:04:46.113Z,1.10
2023-01-12T01:07:15.958Z,1.30
2023-01-12T01:09:44.219Z,1.20
2023-01-12T01:12:12.142Z,1.10
2023-01-12T01:14:40.034Z,1.10
2023-01-12T01:17:09.667Z,1.13
2023-01-12T01:19:39.084Z,1.53
2023-01-12T01:22:07.015Z,1.20
2023-01-12T01:24:34.906Z,1.23
2023-01-12T01:27:02.788Z,1.20
2023-01-12T01:29:31.067Z,1.00
2023-01-12T01:31:58.980Z,1.30
2023-01-12T01:34:26.962Z,1.10
2023-01-12T01:36:56.250Z,1.20
2023-01-12T01:39:24.134Z,1.10
2023-01-12T01:41:52.035Z,1.20
2023-01-12T01:44:51.659Z,1.17
2023-01-12T01:47:24.759Z,1.00
2023-01-12T01:49:53.647Z,1.00
2023-01-12T01:52:24.071Z,1.03
2023-01-12T01:54:53.789Z,1.03
2023-01-12T01:57:21.700Z,1.00
2023-01-12T01:59:51.333Z,1.13
2023-01-12T02:02:19.295Z,1.20
2023-01-12T02:04:47.208Z,1.40
2023-01-12T02:07:15.072Z,1.30
2023-01-12T02:09:44.314Z,1.30
2023-01-12T02:12:29.590Z,1.03
2023-01-12T02:15:15.176Z,1.00
2023-01-12T02:17:53.409Z,1.07
2023-01-12T02:20:37.174Z,1.10
2023-01-12T02:23:40.209Z,1.20
2023-01-12T02:26:44.488Z,1.10
2023-01-12T02:29:35.702Z,0.90
2023-01-12T02:32:07.000Z,1.10
2023-01-12T02:34:38.078Z,1.30
2023-01-12T02:37:10.851Z,1.30
2023-01-12T02:39:41.332Z,1.10
2023-01-12T02:42:30.030Z,1.10
2023-01-12T02:45:01.105Z,1.10
2023-01-12T02:47:34.434Z,1.30
2023-01-12T02:50:03.131Z,1.00
2023-01-12T02:52:32.380Z,1.10
2023-01-12T02:55:00.446Z,0.93
2023-01-12T02:57:28.297Z,0.90
2023-01-12T02:59:56.309Z,0.90
2023-01-12T03:02:24.724Z,1.20
2023-01-12T03:04:55.105Z,1.20
2023-01-12T03:07:36.073Z,1.00
2023-01-12T03:10:17.084Z,1.13
2023-01-12T03:12:45.006Z,0.97
2023-01-12T03:15:13.790Z,1.20
2023-01-12T03:17:44.371Z,1.00
2023-01-12T03:20:16.942Z,1.00
2023-01-12T03:22:44.828Z,1.20
2023-01-12T03:25:14.045Z,1.20
2023-01-12T03:27:43.142Z,1.10
2023-01-12T03:30:13.656Z,1.10
2023-01-12T03:32:41.521Z,0.87
2023-01-12T03:35:09.794Z,1.07
2023-01-12T03:37:40.736Z,1.00
2023-01-12T03:40:11.046Z,0.77
2023-01-12T03:42:39.990Z,1.00
2023-01-12T03:45:11.813Z,0.87
2023-01-12T03:47:39.659Z,1.07
2023-01-12T03:50:10.618Z,1.17
2023-01-12T03:52:40.005Z,0.93
2023-01-12T03:55:09.449Z,1.00
2023-01-12T03:57:37.448Z,1.10
2023-01-12T04:00:05.991Z,1.00
2023-01-12T04:02:40.500Z,0.90
2023-01-12T04:05:09.160Z,1.00
2023-01-12T04:07:37.040Z,0.87
2023-01-12T04:10:07.442Z,1.10
2023-01-12T04:12:35.694Z,1.00
2023-01-12T04:15:03.559Z,1.00
2023-01-12T04:17:31.399Z,0.90
2023-01-12T04:19:59.270Z,1.00
2023-01-12T04:22:44.221Z,1.00
2023-01-12T04:25:13.940Z,1.00
2023-01-12T04:27:47.407Z,0.83
2023-01-12T04:30:15.584Z,0.90
2023-01-12T04:32:43.803Z,0.90
2023-01-12T04:35:12.841Z,0.90
2023-01-12T04:37:40.810Z,0.87
2023-01-12T04:40:09.700Z,1.20
2023-01-12T04:42:56.292Z,0.90
2023-01-12T04:45:24.200Z,0.93
2023-01-12T04:47:52.103Z,0.97
2023-01-12T04:50:20.091Z,0.73
2023-01-12T04:52:48.019Z,0.90
2023-01-12T04:55:15.995Z,1.10
2023-01-12T04:57:46.809Z,0.90
2023-01-12T05:00:14.987Z,1.00
2023-01-12T05:02:42.850Z,0.80
2023-01-12T05:05:10.908Z,0.90
2023-01-12T05:07:58.788Z,1.00
2023-01-12T05:10:25.691Z,1.00
2023-01-12T05:12:54.915Z,0.87
2023-01-12T05:15:22.801Z,1.00
2023-01-12T05:17:50.682Z,0.80
2023-01-12T05:20:18.664Z,0.90
2023-01-12T05:22:48.371Z,1.00
2023-01-12T05:25:16.485Z,1.00
2023-01-12T05:27:44.387Z,1.07
2023-01-12T05:30:13.968Z,0.90
2023-01-12T05:32:42.401Z,0.90
2023-01-12T05:35:10.585Z,0.77
2023-01-12T05:37:38.450Z,1.00
2023-01-12T05:40:07.134Z,0.80
2023-01-12T05:42:52.661Z,1.13
2023-01-12T05:45:21.896Z,0.77
2023-01-12T05:47:53.501Z,0.90
2023-01-12T05:50:21.402Z,1.07
2023-01-12T05:53:08.461Z,0.87
2023-01-12T05:55:37.737Z,0.80
2023-01-12T05:58:05.657Z,0.97
2023-01-12T06:00:34.899Z,0.90
2023-01-12T06:03:03.107Z,1.13
2023-01-12T06:05:31.252Z,0.97
2023-01-12T06:07:59.216Z,0.80
2023-01-12T06:10:27.104Z,1.03
2023-01-12T06:13:12.610Z,1.00
2023-01-12T06:15:41.937Z,0.90
2023-01-12T06:18:09.815Z,0.70
2023-01-12T06:20:37.719Z,1.00
2023-01-12T06:23:05.866Z,0.83
2023-01-12T06:25:33.791Z,0.90
2023-01-12T06:28:01.687Z,0.93
2023-01-12T06:30:29.650Z,0.90
2023-01-12T06:33:01.856Z,0.80
2023-01-12T06:35:30.566Z,0.87
2023-01-12T06:37:58.497Z,0.80
2023-01-12T06:40:26.415Z,0.90
2023-01-12T06:42:54.286Z,0.83
2023-01-12T06:45:22.169Z,0.90
2023-01-12T06:47:52.016Z,0.80
2023-01-12T06:50:21.358Z,0.93
2023-01-12T06:52:49.229Z,0.97
2023-01-12T06:55:17.337Z,1.00
2023-01-12T06:57:45.295Z,0.87
2023-01-12T07:00:14.260Z,0.90
2023-01-12T07:02:42.217Z,0.80
2023-01-12T07:05:10.375Z,0.90
2023-01-12T07:07:40.463Z,0.73
2023-01-12T07:10:09.362Z,0.90
2023-01-12T07:12:37.342Z,1.00
2023-01-12T07:15:05.671Z,0.90
2023-01-12T07:17:33.558Z,1.10
2023-01-12T07:20:01.447Z,0.77
2023-01-12T07:22:30.283Z,0.80
2023-01-12T07:24:59.544Z,0.80
2023-01-12T07:27:27.451Z,0.80
2023-01-12T07:29:55.817Z,0.90
2023-01-12T07:32:26.729Z,0.80
2023-01-12T07:34:54.592Z,0.67
2023-01-12T07:37:22.468Z,0.70
2023-01-12T07:39:50.355Z,0.90
2023-01-12T07:42:25.575Z,1.10
2023-01-12T07:44:53.524Z,0.90
2023-01-12T07:47:21.487Z,0.90
2023-01-12T07:49:49.420Z,0.80
2023-01-12T07:52:17.309Z,0.80
2023-01-12T07:54:45.176Z,0.63
2023-01-12T07:57:13.117Z,0.60
2023-01-12T07:59:42.366Z,0.80
2023-01-12T08:02:13.792Z,0.83
2023-01-12T08:04:41.779Z,0.70
2023-01-12T08:07:10.040Z,0.60
2023-01-12T08:09:37.917Z,0.60
2023-01-12T08:12:06.703Z,0.80
2023-01-12T08:14:37.072Z,0.80
2023-01-12T08:17:07.589Z,0.80
2023-01-12T08:19:38.673Z,0.80
2023-01-12T08:22:08.966Z,0.70
2023-01-12T08:24:37.691Z,0.60
2023-01-12T08:27:06.244Z,0.87
2023-01-12T08:29:36.088Z,0.70
2023-01-12T08:34:39.579Z,0.83
2023-01-12T08:37:09.305Z,0.77
2023-01-12T08:39:37.237Z,1.00
2023-01-12T08:42:05.405Z,0.80
2023-01-12T08:44:34.653Z,0.73
2023-01-12T08:47:02.670Z,0.70
2023-01-12T08:49:31.998Z,0.80
2023-01-12T08:51:59.857Z,0.73
2023-01-12T08:54:27.868Z,0.60
2023-01-12T08:56:55.751Z,0.70
2023-01-12T08:59:23.983Z,0.80
2023-01-12T09:01:52.026Z,0.63
2023-01-12T09:04:19.952Z,0.70
2023-01-12T09:06:49.345Z,0.70
2023-01-12T09:09:19.200Z,0.80
2023-01-12T09:11:47.534Z,0.60
2023-01-12T09:14:15.845Z,0.70
2023-01-12T09:16:43.923Z,0.70
2023-01-12T09:19:11.893Z,0.70
2023-01-12T09:21:40.718Z,0.73
2023-01-12T09:24:10.456Z,0.67
2023-01-12T09:26:39.180Z,0.70
2023-01-12T09:29:07.742Z,0.70
2023-01-12T09:31:36.182Z,0.60
2023-01-12T09:34:04.144Z,0.80
2023-01-12T09:36:33.451Z,0.63
2023-01-12T09:39:02.027Z,0.80
2023-01-12T09:41:49.704Z,0.90
2023-01-12T09:44:37.067Z,0.80
2023-01-12T09:47:06.362Z,0.70
2023-01-12T09:49:36.157Z,0.70
2023-01-12T09:52:14.322Z,0.70
2023-01-12T09:54:42.260Z,0.60
2023-01-12T09:57:28.887Z,1.00
2023-01-12T09:59:58.951Z,0.83
2023-01-12T10:02:27.778Z,0.73
2023-01-12T10:04:55.707Z,0.80
2023-01-12T10:07:23.622Z,0.70
2023-01-12T10:09:51.542Z,0.80
2023-01-12T10:12:23.993Z,0.60
2023-01-12T10:15:23.520Z,0.70
2023-01-12T10:17:53.106Z,0.80
2023-01-12T10:20:24.877Z,0.67
2023-01-12T10:22:54.609Z,0.67
2023-01-12T10:25:26.752Z,0.87
2023-01-12T10:27:56.764Z,0.87
2023-01-12T10:30:30.653Z,0.73
2023-01-12T10:32:58.696Z,0.60
2023-01-12T10:35:26.672Z,0.70
2023-01-12T10:37:55.285Z,0.77
2023-01-12T10:40:29.573Z,0.90
2023-01-12T10:43:32.223Z,0.70
2023-01-12T10:46:11.294Z,0.70
2023-01-12T10:48:40.077Z,0.67
2023-01-12T10:51:08.781Z,0.70
2023-01-12T10:53:38.841Z,0.70
2023-01-12T10:56:14.799Z,0.63
2023-01-12T10:58:47.662Z,0.53
2023-01-12T11:01:15.821Z,0.73
2023-01-12T11:03:43.863Z,0.80
2023-01-12T11:06:25.001Z,0.80
2023-01-12T11:08:52.933Z,0.70
2023-01-12T11:11:25.029Z,0.80
2023-01-12T11:13:58.519Z,0.70
2023-01-12T11:16:27.062Z,0.80
2023-01-12T11:19:04.230Z,0.80
2023-01-12T11:21:33.953Z,0.70
2023-01-12T11:24:04.026Z,0.63
2023-01-12T11:26:34.381Z,0.80
2023-01-12T11:29:07.783Z,0.70
2023-01-12T11:31:38.355Z,0.70
2023-01-12T11:34:09.964Z,0.70
2023-01-12T11:36:39.931Z,0.80
2023-01-12T11:39:11.095Z,0.50
2023-01-12T11:41:40.219Z,0.63
2023-01-12T11:44:13.848Z,0.67
2023-01-12T11:46:43.170Z,0.50
2023-01-12T11:49:13.615Z,0.60
2023-01-12T11:51:42.097Z,0.70
2023-01-12T11:54:11.892Z,0.60
2023-01-12T11:56:53.466Z,0.60
2023-01-12T11:59:24.511Z,0.53
2023-01-12T12:01:55.270Z,0.60
2023-01-12T12:04:31.395Z,0.60
2023-01-12T12:07:06.273Z,0.63
2023-01-12T12:09:43.327Z,0.60
2023-01-12T12:12:14.375Z,0.70
2023-01-12T12:14:49.356Z,0.70
2023-01-12T12:17:20.582Z,0.60
2023-01-12T12:19:53.544Z,0.60
2023-01-12T12:22:31.774Z,0.70
2023-01-12T12:25:16.523Z,0.70
2023-01-12T12:27:56.219Z,0.60
2023-01-12T12:30:40.999Z,0.70
2023-01-12T12:33:12.172Z,0.70
2023-01-12T12:35:45.751Z,0.60
2023-01-12T12:38:21.148Z,0.70
2023-01-12T12:41:13.007Z,0.60
2023-01-12T12:43:58.634Z,0.63
2023-01-12T12:46:32.676Z,0.70
2023-01-12T12:49:02.187Z,0.70
2023-01-12T12:51:31.142Z,0.70
2023-01-12T12:53:59.053Z,0.77
2023-01-12T12:56:26.917Z,1.00
2023-01-12T12:58:55.153Z,1.47
2023-01-12T13:01:58.228Z,1.83
2023-01-12T13:05:02.471Z,1.60
2023-01-12T13:07:31.644Z,1.60
2023-01-12T13:10:22.081Z,2.00
2023-01-12T13:12:58.102Z,2.00
2023-01-12T13:15:29.307Z,2.10
2023-01-12T13:17:58.539Z,2.40
2023-01-12T13:20:53.448Z,2.10
2023-01-12T13:23:47.285Z,2.03
2023-01-12T13:26:39.538Z,2.10
2023-01-12T13:29:39.655Z,2.40
2023-01-12T13:32:35.532Z,2.60
2023-01-12T13:35:05.008Z,2.60
2023-01-12T13:37:38.414Z,2.30
2023-01-12T13:40:12.437Z,2.57
2023-01-12T13:42:57.825Z,2.40
2023-01-12T13:45:25.766Z,2.23
2023-01-12T13:47:53.887Z,2.60
2023-01-12T13:50:24.300Z,2.87
2023-01-12T13:52:58.972Z,2.53
2023-01-12T13:55:28.250Z,2.30
2023-01-12T13:58:00.574Z,2.50
2023-01-12T14:00:29.499Z,2.40
2023-01-12T14:02:57.460Z,2.97
2023-01-12T14:05:37.761Z,2.57
2023-01-12T14:08:50.123Z,2.50
2023-01-12T14:11:32.930Z,2.57
2023-01-12T14:14:28.983Z,2.27
2023-01-12T14:17:28.938Z,2.67
2023-01-12T14:19:56.803Z,2.43
2023-01-12T14:22:25.989Z,2.60
2023-01-12T14:24:53.900Z,2.23
2023-01-12T14:27:23.108Z,2.47
2023-01-12T14:29:51.324Z,2.40
2023-01-12T14:32:19.703Z,2.40
2023-01-12T14:34:49.580Z,2.40
2023-01-12T14:37:26.858Z,2.50
2023-01-12T14:39:54.769Z,2.50
2023-01-12T14:42:39.327Z,2.37
2023-01-12T14:45:38.955Z,2.80
2023-01-12T14:48:23.481Z,2.33
2023-01-12T14:51:01.962Z,2.30
2023-01-12T14:53:35.414Z,2.20
2023-01-12T14:56:12.590Z,2.80
2023-01-12T14:58:40.506Z,2.60
2023-01-12T15:01:08.441Z,2.20
2023-01-12T15:03:43.878Z,2.30
2023-01-12T15:06:15.575Z,2.30
2023-01-12T15:08:55.318Z,2.20
2023-01-12T15:11:34.489Z,2.40
2023-01-12T15:14:02.523Z,1.90
2023-01-12T15:16:47.857Z,1.90
2023-01-12T15:19:33.342Z,2.00
2023-01-12T15:22:18.739Z,2.47
2023-01-12T15:25:05.735Z,1.90
2023-01-12T15:27:33.723Z,2.47
2023-01-12T15:30:01.635Z,2.10
2023-01-12T15:32:46.201Z,2.10
2023-01-12T15:35:16.425Z,2.00
2023-01-12T15:37:44.359Z,2.20
2023-01-12T15:40:15.346Z,2.37
2023-01-12T15:42:43.265Z,2.30
2023-01-12T15:45:19.755Z,1.97
2023-01-12T15:47:48.215Z,1.93
2023-01-12T15:50:16.369Z,2.20
2023-01-12T15:52:44.236Z,1.80
2023-01-12T15:55:16.501Z,2.20
2023-01-12T15:57:44.457Z,2.20
2023-01-12T16:00:16.008Z,1.93
2023-01-12T16:02:45.250Z,2.00
2023-01-12T16:05:13.703Z,2.13
2023-01-12T16:07:41.618Z,1.80
2023-01-12T16:10:10.207Z,1.97
2023-01-12T16:12:39.442Z,2.10
2023-01-12T16:15:08.892Z,1.90
2023-01-12T16:17:36.794Z,1.90
2023-01-12T16:20:05.164Z,1.87
2023-01-12T16:22:33.403Z,1.60
2023-01-12T16:25:01.329Z,1.93
2023-01-12T16:27:29.235Z,1.83
2023-01-12T16:29:58.534Z,2.00
2023-01-12T16:32:26.796Z,1.80
2023-01-12T16:34:54.747Z,1.50
2023-01-12T16:37:26.640Z,1.80
2023-01-12T16:39:55.411Z,1.93
2023-01-12T16:42:23.437Z,1.70
2023-01-12T16:44:51.299Z,1.80
2023-01-12T16:47:20.966Z,1.87
2023-01-12T16:49:49.495Z,2.07
2023-01-12T16:52:18.427Z,1.70
2023-01-12T16:54:46.475Z,1.70
2023-01-12T16:57:15.221Z,1.80
2023-01-12T16:59:43.243Z,1.87
2023-01-12T17:02:12.603Z,1.40
2023-01-12T17:04:43.645Z,1.73
2023-01-12T17:07:11.705Z,1.63
2023-01-12T17:09:40.032Z,1.50
2023-01-12T17:12:08.253Z,1.63
2023-01-12T17:14:36.606Z,1.70
2023-01-12T17:17:05.650Z,1.67
2023-01-12T17:19:34.509Z,1.70
2023-01-12T17:22:06.197Z,1.70
2023-01-12T17:24:34.483Z,1.80
2023-01-12T17:27:02.553Z,1.73
2023-01-12T17:29:30.694Z,1.70
2023-01-12T17:32:04.075Z,1.37
2023-01-12T17:34:36.406Z,1.53
2023-01-12T17:37:08.095Z,1.30
2023-01-12T17:39:36.267Z,1.60
2023-01-12T17:42:22.522Z,1.63
2023-01-12T17:44:50.384Z,1.40
2023-01-12T17:47:18.344Z,1.50
2023-01-12T17:49:47.729Z,1.37
2023-01-12T17:52:17.699Z,1.80
2023-01-12T17:54:45.671Z,1.80
2023-01-12T17:57:13.571Z,1.47
2023-01-12T17:59:41.476Z,1.70
2023-01-12T18:02:10.874Z,1.37
2023-01-12T18:04:38.813Z,1.50
2023-01-12T18:07:06.728Z,1.60
2023-01-12T18:09:36.757Z,1.43
2023-01-12T18:12:05.177Z,1.47
2023-01-12T18:14:33.229Z,1.50
2023-01-12T18:17:01.107Z,1.70
2023-01-12T18:19:29.932Z,1.30
2023-01-12T18:21:57.858Z,1.27
2023-01-12T18:24:25.780Z,1.60
2023-01-12T18:26:54.993Z,1.40
2023-01-12T18:29:22.899Z,1.40
2023-01-12T18:31:50.819Z,1.60
2023-01-12T18:34:19.197Z,1.50
2023-01-12T18:36:47.073Z,1.20
2023-01-12T18:39:16.917Z,1.20
2023-01-12T18:42:02.106Z,1.30
2023-01-12T18:44:32.290Z,1.40
2023-01-12T18:47:17.619Z,1.50
2023-01-12T18:49:46.186Z,1.03
2023-01-12T18:52:32.014Z,1.30
2023-01-12T18:54:59.963Z,1.50
2023-01-12T18:57:28.833Z,1.00
2023-01-12T19:00:00.310Z,1.20
2023-01-12T19:02:29.770Z,1.30
2023-01-12T19:05:16.584Z,1.10
2023-01-12T19:08:07.180Z,1.20
2023-01-12T19:10:35.175Z,1.20
2023-01-12T19:13:25.993Z,1.40
2023-01-12T19:16:12.853Z,1.23
2023-01-12T19:18:41.026Z,1.20
2023-01-12T19:21:26.823Z,1.30
2023-01-12T19:24:12.466Z,1.33
2023-01-12T19:26:57.681Z,1.10
2023-01-12T19:29:25.585Z,1.00
2023-01-12T19:31:54.786Z,1.20
2023-01-12T19:34:24.723Z,1.30
2023-01-12T19:36:52.868Z,1.40
2023-01-12T19:39:30.486Z,1.20
2023-01-12T19:42:15.669Z,1.10
2023-01-12T19:44:45.789Z,1.10
2023-01-12T19:47:15.019Z,1.20
2023-01-12T19:49:42.900Z,1.30
2023-01-12T19:52:10.797Z,1.30
2023-01-12T19:54:38.692Z,1.10
2023-01-12T19:57:06.580Z,1.10
2023-01-12T19:59:34.450Z,1.00
2023-01-12T20:02:02.430Z,1.17
2023-01-12T20:04:31.737Z,1.30
2023-01-12T20:06:59.639Z,1.17
2023-01-12T20:09:27.809Z,1.10
2023-01-12T20:11:55.681Z,1.30
2023-01-12T20:14:23.589Z,0.90
2023-01-12T20:16:51.426Z,1.20
2023-01-12T20:19:20.527Z,1.10
2023-01-12T20:21:49.798Z,1.00
2023-01-12T20:24:17.796Z,1.10
2023-01-12T20:26:45.730Z,1.10
2023-01-12T20:29:13.631Z,1.10
2023-01-12T20:31:41.655Z,0.90
2023-01-12T20:34:10.098Z,1.00
2023-01-12T20:36:38.891Z,1.20
2023-01-12T20:39:10.939Z,1.07
2023-01-12T20:41:39.100Z,1.10
2023-01-12T20:44:07.285Z,1.20
2023-01-12T20:46:35.482Z,1.00
2023-01-12T20:49:03.411Z,1.00
2023-01-12T20:51:31.329Z,1.10
2023-01-12T20:54:01.340Z,1.00
2023-01-12T20:56:30.610Z,1.10
2023-01-12T20:58:58.541Z,1.13
2023-01-12T21:01:26.607Z,1.10
2023-01-12T21:03:54.494Z,1.10
2023-01-12T21:06:22.697Z,0.97
2023-01-12T21:08:50.626Z,1.13
2023-01-12T21:11:19.320Z,1.00
2023-01-12T21:13:48.614Z,0.90
2023-01-12T21:16:17.875Z,1.00
2023-01-12T21:18:45.875Z,1.03
2023-01-12T21:21:13.787Z,1.03
2023-01-12T21:23:41.670Z,0.93
2023-01-12T21:26:10.844Z,0.90
2023-01-12T21:28:39.187Z,1.00
2023-01-12T21:31:09.330Z,0.90
2023-01-12T21:33:37.196Z,1.03
2023-01-12T21:36:05.440Z,1.00
2023-01-12T21:38:33.522Z,1.10
2023-01-12T21:41:02.348Z,1.17
2023-01-12T21:43:30.376Z,1.10
2023-01-12T21:46:03.568Z,0.93
2023-01-12T21:48:32.925Z,0.73
2023-01-12T21:51:04.383Z,0.87
2023-01-12T21:53:32.302Z,1.10
2023-01-12T21:56:01.049Z,1.00
2023-01-12T21:58:29.763Z,1.00
2023-01-12T22:00:57.952Z,1.03
2023-01-12T22:03:26.050Z,0.93
2023-01-12T22:05:55.586Z,0.90
2023-01-12T22:08:23.483Z,0.83
2023-01-12T22:10:51.411Z,0.93
2023-01-12T22:13:19.295Z,1.30
2023-01-12T22:15:50.827Z,1.00
2023-01-12T22:18:18.778Z,1.00
2023-01-12T22:20:46.638Z,0.80
2023-01-12T22:23:16.367Z,1.00
2023-01-12T22:25:44.256Z,0.90
2023-01-12T22:28:12.200Z,0.93
2023-01-12T22:30:40.081Z,0.90
2023-01-12T22:33:07.985Z,1.10
2023-01-12T22:35:36.151Z,0.80
2023-01-12T22:38:04.122Z,0.70
2023-01-12T22:40:33.340Z,0.83
2023-01-12T22:43:18.595Z,0.90
2023-01-12T22:45:46.500Z,1.03
2023-01-12T22:48:14.396Z,0.93
2023-01-12T22:50:42.234Z,0.90
2023-01-12T22:53:10.559Z,0.80
2023-01-12T22:55:41.213Z,0.97
2023-01-12T22:58:09.155Z,0.70
2023-01-12T23:00:39.693Z,0.90
2023-01-12T23:03:09.338Z,0.70
2023-01-12T23:05:38.505Z,0.90
2023-01-12T23:08:06.780Z,0.90
2023-01-12T23:10:34.716Z,0.70
2023-01-12T23:13:15.515Z,0.90
2023-01-12T23:15:45.734Z,0.90
2023-01-12T23:18:13.922Z,0.90
2023-01-12T23:20:42.535Z,0.90
2023-01-12T23:23:10.709Z,0.60
2023-01-12T23:25:39.212Z,0.77
2023-01-12T23:28:08.568Z,0.83
2023-01-12T23:30:36.437Z,0.90
2023-01-12T23:33:04.926Z,0.90
2023-01-12T23:35:35.422Z,0.90
2023-01-12T23:38:03.316Z,0.90
2023-01-12T23:40:31.180Z,0.80
2023-01-12T23:42:59.409Z,0.73
2023-01-12T23:45:28.656Z,1.00
2023-01-12T23:47:56.882Z,0.80
2023-01-12T23:50:24.943Z,0.90
2023-01-12T23:52:52.791Z,0.70
2023-01-12T23:55:20.658Z,0.70
2023-01-12T23:57:48.694Z,0.80
